sensor_id;sensor_type;location;lat;lon;timestamp;pressure;altitude;pressure_sealevel;temperature;humidity
65013;BME280;51715;39.432;-77.518;2023-06-10T00:00:39;98963.51;;;20.79;44.13
65013;BME280;51715;39.432;-77.518;2023-06-10T00:03:16;98961.11;;;20.52;44.38
65013;BME280;51715;39.432;-77.518;2023-06-10T00:05:54;98964.53;;;20.46;44.32
65013;BME280;51715;39.432;-77.518;2023-06-10T00:08:33;98967.95;;;20.77;44.00
65013;BME280;51715;39.432;-77.518;2023-06-10T00:11:11;98967.43;;;20.71;43.50
65013;BME280;51715;39.432;-77.518;2023-06-10T00:13:50;98971.11;;;20.70;43.76
65013;BME280;51715;39.432;-77.518;2023-06-10T00:16:28;98972.22;;;20.78;43.65
65013;BME280;51715;39.432;-77.518;2023-06-10T00:19:07;98974.89;;;20.60;43.67
65013;BME280;51715;39.432;-77.518;2023-06-10T00:21:45;98968.57;;;20.87;43.87
65013;BME280;51715;39.432;-77.518;2023-06-10T00:24:23;98964.41;;;20.80;44.13
65013;BME280;51715;39.432;-77.518;2023-06-10T00:27:02;98965.71;;;20.75;44.25
65013;BME280;51715;39.432;-77.518;2023-06-10T00:29:41;98966.37;;;20.85;44.05
65013;BME280;51715;39.432;-77.518;2023-06-10T00:32:19;98978.54;;;20.74;43.97
65013;BME280;51715;39.432;-77.518;2023-06-10T00:34:57;98978.59;;;20.91;43.71
65013;BME280;51715;39.432;-77.518;2023-06-10T00:37:34;98978.61;;;20.46;43.33
65013;BME280;51715;39.432;-77.518;2023-06-10T00:40:13;98979.46;;;20.95;43.23
65013;BME280;51715;39.432;-77.518;2023-06-10T00:42:51;98979.94;;;20.90;43.28
65013;BME280;51715;39.432;-77.518;2023-06-10T00:45:29;98977.55;;;20.88;43.32
65013;BME280;51715;39.432;-77.518;2023-06-10T00:48:07;98981.21;;;20.72;43.05
65013;BME280;51715;39.432;-77.518;2023-06-10T00:50:46;98985.34;;;20.69;43.30
65013;BME280;51715;39.432;-77.518;2023-06-10T00:53:25;98983.56;;;20.70;43.29
65013;BME280;51715;39.432;-77.518;2023-06-10T00:56:04;98985.66;;;20.68;43.11
65013;BME280;51715;39.432;-77.518;2023-06-10T00:58:42;98983.94;;;20.85;43.07
65013;BME280;51715;39.432;-77.518;2023-06-10T01:01:21;98987.23;;;20.79;42.92
65013;BME280;51715;39.432;-77.518;2023-06-10T01:03:59;98987.36;;;20.75;42.72
65013;BME280;51715;39.432;-77.518;2023-06-10T01:06:47;98993.71;;;20.50;42.62
65013;BME280;51715;39.432;-77.518;2023-06-10T01:09:38;98994.09;;;20.68;42.30
65013;BME280;51715;39.432;-77.518;2023-06-10T01:12:30;98992.19;;;20.67;42.37
65013;BME280;51715;39.432;-77.518;2023-06-10T01:15:10;98996.14;;;20.39;42.34
65013;BME280;51715;39.432;-77.518;2023-06-10T01:18:02;99003.21;;;20.62;42.15
65013;BME280;51715;39.432;-77.518;2023-06-10T01:20:41;99013.56;;;20.86;41.89
65013;BME280;51715;39.432;-77.518;2023-06-10T01:23:21;99015.70;;;20.51;41.94
65013;BME280;51715;39.432;-77.518;2023-06-10T01:26:03;99019.85;;;20.49;41.88
65013;BME280;51715;39.432;-77.518;2023-06-10T01:28:47;99019.58;;;20.40;41.71
65013;BME280;51715;39.432;-77.518;2023-06-10T01:31:37;99023.78;;;20.76;41.71
65013;BME280;51715;39.432;-77.518;2023-06-10T01:34:18;99028.44;;;20.45;41.51
65013;BME280;51715;39.432;-77.518;2023-06-10T01:36:58;99028.45;;;19.99;41.78
65013;BME280;51715;39.432;-77.518;2023-06-10T01:39:37;99032.29;;;20.08;41.93
65013;BME280;51715;39.432;-77.518;2023-06-10T01:42:17;99036.22;;;20.11;42.16
65013;BME280;51715;39.432;-77.518;2023-06-10T01:44:56;99039.31;;;19.71;42.44
65013;BME280;51715;39.432;-77.518;2023-06-10T01:47:34;99043.46;;;19.30;42.62
65013;BME280;51715;39.432;-77.518;2023-06-10T01:50:13;99047.84;;;19.72;42.80
65013;BME280;51715;39.432;-77.518;2023-06-10T01:52:51;99050.88;;;19.65;42.95
65013;BME280;51715;39.432;-77.518;2023-06-10T01:55:29;99054.62;;;19.58;42.96
65013;BME280;51715;39.432;-77.518;2023-06-10T01:58:08;99052.62;;;19.55;42.95
65013;BME280;51715;39.432;-77.518;2023-06-10T02:00:47;99054.32;;;19.46;42.95
65013;BME280;51715;39.432;-77.518;2023-06-10T02:03:25;99057.00;;;19.40;42.99
65013;BME280;51715;39.432;-77.518;2023-06-10T02:06:03;99061.26;;;19.29;43.11
65013;BME280;51715;39.432;-77.518;2023-06-10T02:08:42;99060.63;;;19.18;43.26
65013;BME280;51715;39.432;-77.518;2023-06-10T02:11:20;99057.38;;;19.01;43.30
65013;BME280;51715;39.432;-77.518;2023-06-10T02:13:59;99056.78;;;19.19;43.30
65013;BME280;51715;39.432;-77.518;2023-06-10T02:16:37;99055.67;;;19.21;43.11
65013;BME280;51715;39.432;-77.518;2023-06-10T02:19:15;99059.47;;;19.40;43.08
65013;BME280;51715;39.432;-77.518;2023-06-10T02:21:54;99060.70;;;18.96;43.11
65013;BME280;51715;39.432;-77.518;2023-06-10T02:24:32;99063.30;;;18.88;43.11
65013;BME280;51715;39.432;-77.518;2023-06-10T02:27:10;99066.29;;;18.83;43.24
65013;BME280;51715;39.432;-77.518;2023-06-10T02:29:49;99060.26;;;18.67;43.45
65013;BME280;51715;39.432;-77.518;2023-06-10T02:32:27;99063.34;;;18.66;43.51
65013;BME280;51715;39.432;-77.518;2023-06-10T02:35:07;99068.87;;;18.71;43.41
65013;BME280;51715;39.432;-77.518;2023-06-10T02:37:45;99070.57;;;18.52;43.03
65013;BME280;51715;39.432;-77.518;2023-06-10T02:40:23;99069.34;;;18.47;42.96
65013;BME280;51715;39.432;-77.518;2023-06-10T02:43:02;99066.57;;;18.65;43.39
65013;BME280;51715;39.432;-77.518;2023-06-10T02:45:40;99073.61;;;18.41;43.50
65013;BME280;51715;39.432;-77.518;2023-06-10T02:48:18;99076.97;;;18.34;43.41
65013;BME280;51715;39.432;-77.518;2023-06-10T02:50:56;99074.53;;;18.48;43.17
65013;BME280;51715;39.432;-77.518;2023-06-10T02:53:35;99069.30;;;18.15;43.17
65013;BME280;51715;39.432;-77.518;2023-06-10T02:56:15;99067.38;;;18.16;43.06
65013;BME280;51715;39.432;-77.518;2023-06-10T02:58:53;99066.99;;;18.22;43.06
65013;BME280;51715;39.432;-77.518;2023-06-10T03:01:32;99063.05;;;18.08;43.13
65013;BME280;51715;39.432;-77.518;2023-06-10T03:04:10;99064.93;;;18.16;43.11
65013;BME280;51715;39.432;-77.518;2023-06-10T03:06:48;99058.94;;;17.98;43.22
65013;BME280;51715;39.432;-77.518;2023-06-10T03:09:26;99054.92;;;17.91;43.26
65013;BME280;51715;39.432;-77.518;2023-06-10T03:12:05;99047.97;;;17.79;43.42
65013;BME280;51715;39.432;-77.518;2023-06-10T03:14:43;99047.40;;;18.24;43.38
65013;BME280;51715;39.432;-77.518;2023-06-10T03:17:22;99044.72;;;17.86;43.93
65013;BME280;51715;39.432;-77.518;2023-06-10T03:20:00;99042.43;;;17.63;44.12
65013;BME280;51715;39.432;-77.518;2023-06-10T03:22:39;99044.32;;;17.76;43.87
65013;BME280;51715;39.432;-77.518;2023-06-10T03:25:17;99041.65;;;17.70;43.61
65013;BME280;51715;39.432;-77.518;2023-06-10T03:27:55;99043.35;;;17.75;43.19
65013;BME280;51715;39.432;-77.518;2023-06-10T03:30:33;99046.07;;;17.97;43.00
65013;BME280;51715;39.432;-77.518;2023-06-10T03:33:11;99047.14;;;17.96;43.02
65013;BME280;51715;39.432;-77.518;2023-06-10T03:35:49;99052.53;;;17.76;42.79
65013;BME280;51715;39.432;-77.518;2023-06-10T03:38:28;99057.39;;;17.78;42.64
65013;BME280;51715;39.432;-77.518;2023-06-10T03:41:10;99060.57;;;17.97;42.68
65013;BME280;51715;39.432;-77.518;2023-06-10T03:43:48;99064.28;;;17.67;42.75
65013;BME280;51715;39.432;-77.518;2023-06-10T03:46:26;99062.05;;;17.67;42.44
65013;BME280;51715;39.432;-77.518;2023-06-10T03:49:05;99051.82;;;17.56;42.45
65013;BME280;51715;39.432;-77.518;2023-06-10T03:51:43;99050.27;;;17.43;42.72
65013;BME280;51715;39.432;-77.518;2023-06-10T03:54:21;99053.13;;;17.62;42.94
65013;BME280;51715;39.432;-77.518;2023-06-10T03:57:00;99055.45;;;17.78;43.17
65013;BME280;51715;39.432;-77.518;2023-06-10T03:59:39;99056.75;;;17.61;42.91
65013;BME280;51715;39.432;-77.518;2023-06-10T04:03:59;99050.72;;;17.60;41.77
65013;BME280;51715;39.432;-77.518;2023-06-10T04:06:27;99049.48;;;17.46;41.75
65013;BME280;51715;39.432;-77.518;2023-06-10T04:08:55;99045.78;;;17.44;41.71
65013;BME280;51715;39.432;-77.518;2023-06-10T04:11:24;99044.88;;;17.66;41.65
65013;BME280;51715;39.432;-77.518;2023-06-10T04:13:52;99050.91;;;17.76;41.66
65013;BME280;51715;39.432;-77.518;2023-06-10T04:16:21;99052.67;;;17.56;41.87
65013;BME280;51715;39.432;-77.518;2023-06-10T04:18:49;99050.97;;;17.57;42.13
65013;BME280;51715;39.432;-77.518;2023-06-10T04:21:17;99051.88;;;17.64;42.44
65013;BME280;51715;39.432;-77.518;2023-06-10T04:23:45;99056.03;;;17.35;42.46
65013;BME280;51715;39.432;-77.518;2023-06-10T04:26:13;99053.43;;;17.47;42.43
65013;BME280;51715;39.432;-77.518;2023-06-10T04:28:43;99048.35;;;17.37;42.68
65013;BME280;51715;39.432;-77.518;2023-06-10T04:31:11;99041.76;;;17.21;42.87
65013;BME280;51715;39.432;-77.518;2023-06-10T04:33:39;99040.04;;;17.16;43.04
65013;BME280;51715;39.432;-77.518;2023-06-10T04:36:07;99041.72;;;17.14;43.14
65013;BME280;51715;39.432;-77.518;2023-06-10T04:38:35;99044.88;;;16.95;43.14
65013;BME280;51715;39.432;-77.518;2023-06-10T04:41:03;99046.05;;;17.09;42.85
65013;BME280;51715;39.432;-77.518;2023-06-10T04:43:32;99044.42;;;17.21;42.83
65013;BME280;51715;39.432;-77.518;2023-06-10T04:46:00;99041.02;;;17.17;42.78
65013;BME280;51715;39.432;-77.518;2023-06-10T04:48:28;99039.38;;;17.12;42.87
65013;BME280;51715;39.432;-77.518;2023-06-10T04:50:56;99040.87;;;16.98;43.30
65013;BME280;51715;39.432;-77.518;2023-06-10T04:53:24;99039.62;;;16.93;43.40
65013;BME280;51715;39.432;-77.518;2023-06-10T04:55:53;99034.11;;;16.67;43.33
65013;BME280;51715;39.432;-77.518;2023-06-10T04:58:21;99031.17;;;16.94;43.20
65013;BME280;51715;39.432;-77.518;2023-06-10T05:00:49;99030.45;;;16.94;43.07
65013;BME280;51715;39.432;-77.518;2023-06-10T05:03:18;99032.63;;;16.95;43.16
65013;BME280;51715;39.432;-77.518;2023-06-10T05:05:46;99032.46;;;17.26;43.15
65013;BME280;51715;39.432;-77.518;2023-06-10T05:08:14;99023.48;;;17.23;42.89
65013;BME280;51715;39.432;-77.518;2023-06-10T05:10:43;99020.80;;;16.93;43.11
65013;BME280;51715;39.432;-77.518;2023-06-10T05:13:10;99021.71;;;16.90;43.17
65013;BME280;51715;39.432;-77.518;2023-06-10T05:15:38;99019.66;;;16.94;43.09
65013;BME280;51715;39.432;-77.518;2023-06-10T05:18:06;99018.45;;;16.97;42.96
65013;BME280;51715;39.432;-77.518;2023-06-10T05:20:35;99011.21;;;17.28;42.77
65013;BME280;51715;39.432;-77.518;2023-06-10T05:23:03;99010.63;;;16.99;42.99
65013;BME280;51715;39.432;-77.518;2023-06-10T05:25:32;99013.18;;;16.77;43.02
65013;BME280;51715;39.432;-77.518;2023-06-10T05:28:00;99017.00;;;16.79;43.08
65013;BME280;51715;39.432;-77.518;2023-06-10T05:30:29;99016.05;;;16.75;42.96
65013;BME280;51715;39.432;-77.518;2023-06-10T05:32:57;99013.13;;;16.72;42.85
65013;BME280;51715;39.432;-77.518;2023-06-10T05:35:26;99008.92;;;16.71;42.83
65013;BME280;51715;39.432;-77.518;2023-06-10T05:37:54;99012.38;;;16.98;42.90
65013;BME280;51715;39.432;-77.518;2023-06-10T05:40:22;99011.85;;;16.79;42.89
65013;BME280;51715;39.432;-77.518;2023-06-10T05:42:50;99012.17;;;17.05;42.79
65013;BME280;51715;39.432;-77.518;2023-06-10T05:45:19;99008.85;;;17.10;42.52
65013;BME280;51715;39.432;-77.518;2023-06-10T05:47:47;99010.95;;;17.12;42.46
65013;BME280;51715;39.432;-77.518;2023-06-10T05:50:15;99005.57;;;16.79;42.58
65013;BME280;51715;39.432;-77.518;2023-06-10T05:52:43;99003.51;;;16.90;42.63
65013;BME280;51715;39.432;-77.518;2023-06-10T05:55:11;99003.41;;;16.74;42.97
65013;BME280;51715;39.432;-77.518;2023-06-10T05:57:42;99005.75;;;16.46;42.93
65013;BME280;51715;39.432;-77.518;2023-06-10T06:00:11;99003.56;;;16.41;43.09
65013;BME280;51715;39.432;-77.518;2023-06-10T06:02:39;99006.99;;;16.43;43.02
65013;BME280;51715;39.432;-77.518;2023-06-10T06:05:08;99005.58;;;16.24;43.00
65013;BME280;51715;39.432;-77.518;2023-06-10T06:07:36;99003.95;;;16.81;43.10
65013;BME280;51715;39.432;-77.518;2023-06-10T06:10:05;98999.05;;;16.69;43.29
65013;BME280;51715;39.432;-77.518;2023-06-10T06:12:34;98997.80;;;16.22;43.43
65013;BME280;51715;39.432;-77.518;2023-06-10T06:15:08;98992.88;;;16.56;43.31
65013;BME280;51715;39.432;-77.518;2023-06-10T06:17:37;98989.85;;;16.72;43.26
65013;BME280;51715;39.432;-77.518;2023-06-10T06:20:06;98990.46;;;16.72;43.09
65013;BME280;51715;39.432;-77.518;2023-06-10T06:22:34;98990.95;;;16.57;43.24
65013;BME280;51715;39.432;-77.518;2023-06-10T06:25:03;98987.36;;;16.59;43.03
65013;BME280;51715;39.432;-77.518;2023-06-10T06:27:32;98990.37;;;16.64;43.26
65013;BME280;51715;39.432;-77.518;2023-06-10T06:30:00;98994.32;;;16.43;43.30
65013;BME280;51715;39.432;-77.518;2023-06-10T06:32:28;98994.33;;;16.23;43.03
65013;BME280;51715;39.432;-77.518;2023-06-10T06:34:56;98994.09;;;16.50;43.05
65013;BME280;51715;39.432;-77.518;2023-06-10T06:37:24;98992.82;;;16.40;43.03
65013;BME280;51715;39.432;-77.518;2023-06-10T06:39:54;98994.05;;;16.61;43.11
65013;BME280;51715;39.432;-77.518;2023-06-10T06:42:22;98999.51;;;16.40;43.00
65013;BME280;51715;39.432;-77.518;2023-06-10T06:44:50;98998.11;;;16.61;42.94
65013;BME280;51715;39.432;-77.518;2023-06-10T06:47:18;98997.30;;;16.52;43.09
65013;BME280;51715;39.432;-77.518;2023-06-10T06:49:46;98995.69;;;16.30;43.17
65013;BME280;51715;39.432;-77.518;2023-06-10T06:52:15;98994.26;;;16.49;43.08
65013;BME280;51715;39.432;-77.518;2023-06-10T06:54:43;98992.63;;;16.41;43.31
65013;BME280;51715;39.432;-77.518;2023-06-10T06:57:12;98994.18;;;16.21;43.31
65013;BME280;51715;39.432;-77.518;2023-06-10T06:59:40;98992.71;;;16.48;43.30
65013;BME280;51715;39.432;-77.518;2023-06-10T07:02:08;98990.71;;;16.47;43.11
65013;BME280;51715;39.432;-77.518;2023-06-10T07:04:36;98994.84;;;16.27;42.94
65013;BME280;51715;39.432;-77.518;2023-06-10T07:07:06;99005.01;;;16.21;42.94
65013;BME280;51715;39.432;-77.518;2023-06-10T07:09:35;99002.90;;;16.44;42.79
65013;BME280;51715;39.432;-77.518;2023-06-10T07:12:03;99003.96;;;16.38;42.89
65013;BME280;51715;39.432;-77.518;2023-06-10T07:14:31;98998.43;;;16.01;42.92
65013;BME280;51715;39.432;-77.518;2023-06-10T07:16:59;99001.70;;;16.23;43.18
65013;BME280;51715;39.432;-77.518;2023-06-10T07:19:28;98999.13;;;16.22;43.03
65013;BME280;51715;39.432;-77.518;2023-06-10T07:21:56;98997.61;;;16.11;43.22
65013;BME280;51715;39.432;-77.518;2023-06-10T07:24:24;98999.11;;;16.20;43.18
65013;BME280;51715;39.432;-77.518;2023-06-10T07:26:52;99001.49;;;16.00;43.13
65013;BME280;51715;39.432;-77.518;2023-06-10T07:29:20;99002.66;;;15.92;43.12
65013;BME280;51715;39.432;-77.518;2023-06-10T07:31:48;99004.46;;;15.87;43.35
65013;BME280;51715;39.432;-77.518;2023-06-10T07:34:16;99004.05;;;16.01;43.53
65013;BME280;51715;39.432;-77.518;2023-06-10T07:36:44;99003.50;;;15.79;43.53
65013;BME280;51715;39.432;-77.518;2023-06-10T07:39:13;98998.93;;;16.11;43.50
65013;BME280;51715;39.432;-77.518;2023-06-10T07:41:41;98999.47;;;16.15;43.38
65013;BME280;51715;39.432;-77.518;2023-06-10T07:44:09;98995.83;;;16.07;43.38
65013;BME280;51715;39.432;-77.518;2023-06-10T07:46:37;98995.04;;;16.04;43.61
65013;BME280;51715;39.432;-77.518;2023-06-10T07:49:05;98991.39;;;15.99;43.76
65013;BME280;51715;39.432;-77.518;2023-06-10T07:51:33;98988.31;;;16.02;43.55
65013;BME280;51715;39.432;-77.518;2023-06-10T07:54:01;98994.77;;;15.86;43.57
65013;BME280;51715;39.432;-77.518;2023-06-10T07:56:28;98993.35;;;15.91;43.43
65013;BME280;51715;39.432;-77.518;2023-06-10T07:58:57;98990.81;;;16.19;43.27
65013;BME280;51715;39.432;-77.518;2023-06-10T08:01:26;98990.41;;;16.24;43.08
65013;BME280;51715;39.432;-77.518;2023-06-10T08:03:54;98986.16;;;16.19;43.15
65013;BME280;51715;39.432;-77.518;2023-06-10T08:06:23;98990.92;;;16.14;43.31
65013;BME280;51715;39.432;-77.518;2023-06-10T08:08:51;98990.49;;;16.12;43.15
65013;BME280;51715;39.432;-77.518;2023-06-10T08:11:20;98993.19;;;16.13;43.25
65013;BME280;51715;39.432;-77.518;2023-06-10T08:13:47;98993.43;;;16.11;43.05
65013;BME280;51715;39.432;-77.518;2023-06-10T08:16:16;98995.84;;;15.86;42.96
65013;BME280;51715;39.432;-77.518;2023-06-10T08:18:44;98989.35;;;16.04;43.10
65013;BME280;51715;39.432;-77.518;2023-06-10T08:21:13;98992.74;;;15.76;43.38
65013;BME280;51715;39.432;-77.518;2023-06-10T08:23:41;98992.58;;;15.86;43.50
65013;BME280;51715;39.432;-77.518;2023-06-10T08:26:09;98995.81;;;15.88;43.61
65013;BME280;51715;39.432;-77.518;2023-06-10T08:28:37;98996.53;;;15.91;43.72
65013;BME280;51715;39.432;-77.518;2023-06-10T08:31:06;98999.46;;;15.69;43.39
65013;BME280;51715;39.432;-77.518;2023-06-10T08:33:34;99005.12;;;15.97;43.51
65013;BME280;51715;39.432;-77.518;2023-06-10T08:36:03;99008.52;;;16.02;43.46
65013;BME280;51715;39.432;-77.518;2023-06-10T08:38:32;99011.22;;;16.07;43.38
65013;BME280;51715;39.432;-77.518;2023-06-10T08:41:01;99008.57;;;16.09;43.07
65013;BME280;51715;39.432;-77.518;2023-06-10T08:43:36;99010.56;;;15.91;43.10
65013;BME280;51715;39.432;-77.518;2023-06-10T08:46:08;99011.91;;;15.90;43.43
65013;BME280;51715;39.432;-77.518;2023-06-10T08:48:41;99009.04;;;15.94;43.17
65013;BME280;51715;39.432;-77.518;2023-06-10T08:51:10;99013.01;;;15.92;43.35
65013;BME280;51715;39.432;-77.518;2023-06-10T08:53:46;99018.93;;;16.14;43.21
65013;BME280;51715;39.432;-77.518;2023-06-10T08:56:16;99019.96;;;15.87;43.42
65013;BME280;51715;39.432;-77.518;2023-06-10T08:58:45;99021.04;;;15.80;43.66
65013;BME280;51715;39.432;-77.518;2023-06-10T09:01:14;99025.32;;;15.96;43.29
65013;BME280;51715;39.432;-77.518;2023-06-10T09:03:42;99030.57;;;16.02;43.15
65013;BME280;51715;39.432;-77.518;2023-06-10T09:06:11;99033.92;;;15.95;43.13
65013;BME280;51715;39.432;-77.518;2023-06-10T09:08:41;99042.51;;;15.88;43.54
65013;BME280;51715;39.432;-77.518;2023-06-10T09:11:10;99041.83;;;15.77;43.66
65013;BME280;51715;39.432;-77.518;2023-06-10T09:13:38;99042.98;;;15.56;43.86
65013;BME280;51715;39.432;-77.518;2023-06-10T09:16:07;99043.96;;;15.49;44.21
65013;BME280;51715;39.432;-77.518;2023-06-10T09:18:35;99044.45;;;15.76;44.45
65013;BME280;51715;39.432;-77.518;2023-06-10T09:21:04;99050.22;;;15.70;44.66
65013;BME280;51715;39.432;-77.518;2023-06-10T09:23:32;99050.93;;;15.48;44.48
65013;BME280;51715;39.432;-77.518;2023-06-10T09:26:01;99051.37;;;15.42;44.35
65013;BME280;51715;39.432;-77.518;2023-06-10T09:28:29;99054.39;;;15.52;44.50
65013;BME280;51715;39.432;-77.518;2023-06-10T09:31:06;99054.16;;;15.54;44.57
65013;BME280;51715;39.432;-77.518;2023-06-10T09:33:37;99059.19;;;15.68;44.51
65013;BME280;51715;39.432;-77.518;2023-06-10T09:36:06;99063.75;;;15.81;43.97
65013;BME280;51715;39.432;-77.518;2023-06-10T09:38:35;99066.73;;;15.90;43.73
65013;BME280;51715;39.432;-77.518;2023-06-10T09:41:04;99072.08;;;15.80;43.86
65013;BME280;51715;39.432;-77.518;2023-06-10T09:43:40;99074.13;;;15.89;43.87
65013;BME280;51715;39.432;-77.518;2023-06-10T09:46:15;99074.72;;;15.85;43.97
65013;BME280;51715;39.432;-77.518;2023-06-10T09:48:44;99075.99;;;15.86;43.95
65013;BME280;51715;39.432;-77.518;2023-06-10T09:51:14;99076.25;;;15.82;43.90
65013;BME280;51715;39.432;-77.518;2023-06-10T09:53:42;99080.72;;;15.85;44.11
65013;BME280;51715;39.432;-77.518;2023-06-10T09:56:11;99079.07;;;15.63;44.03
65013;BME280;51715;39.432;-77.518;2023-06-10T09:58:40;99085.53;;;15.72;43.89
65013;BME280;51715;39.432;-77.518;2023-06-10T10:01:10;99088.08;;;16.03;43.72
65013;BME280;51715;39.432;-77.518;2023-06-10T10:03:46;99091.43;;;16.04;43.63
65013;BME280;51715;39.432;-77.518;2023-06-10T10:06:16;99090.05;;;15.77;43.81
65013;BME280;51715;39.432;-77.518;2023-06-10T10:08:44;99090.82;;;15.76;43.86
65013;BME280;51715;39.432;-77.518;2023-06-10T10:11:13;99089.18;;;16.08;43.78
65013;BME280;51715;39.432;-77.518;2023-06-10T10:13:42;99086.48;;;16.09;43.72
65013;BME280;51715;39.432;-77.518;2023-06-10T10:16:16;99089.06;;;16.24;43.52
65013;BME280;51715;39.432;-77.518;2023-06-10T10:18:48;99094.60;;;16.10;43.55
65013;BME280;51715;39.432;-77.518;2023-06-10T10:21:22;99095.74;;;16.13;43.52
65013;BME280;51715;39.432;-77.518;2023-06-10T10:24:00;99094.29;;;16.37;43.51
65013;BME280;51715;39.432;-77.518;2023-06-10T10:26:30;99095.76;;;16.35;43.64
65013;BME280;51715;39.432;-77.518;2023-06-10T10:29:14;99098.87;;;16.44;43.68
65013;BME280;51715;39.432;-77.518;2023-06-10T10:31:44;99102.94;;;16.53;43.72
65013;BME280;51715;39.432;-77.518;2023-06-10T10:34:18;99103.92;;;15.98;43.86
65013;BME280;51715;39.432;-77.518;2023-06-10T10:36:49;99103.39;;;16.54;43.87
65013;BME280;51715;39.432;-77.518;2023-06-10T10:39:18;99106.33;;;16.40;44.00
65013;BME280;51715;39.432;-77.518;2023-06-10T10:41:47;99108.03;;;16.48;44.05
65013;BME280;51715;39.432;-77.518;2023-06-10T10:44:17;99104.19;;;16.35;44.04
65013;BME280;51715;39.432;-77.518;2023-06-10T10:46:49;99104.35;;;16.91;44.04
65013;BME280;51715;39.432;-77.518;2023-06-10T10:49:19;99105.27;;;16.82;43.87
65013;BME280;51715;39.432;-77.518;2023-06-10T10:51:55;99109.08;;;16.95;43.91
65013;BME280;51715;39.432;-77.518;2023-06-10T10:54:32;99112.42;;;16.72;44.14
65013;BME280;51715;39.432;-77.518;2023-06-10T10:57:18;99119.10;;;16.80;44.32
65013;BME280;51715;39.432;-77.518;2023-06-10T10:59:53;99123.71;;;16.93;44.38
65013;BME280;51715;39.432;-77.518;2023-06-10T11:02:34;99126.58;;;17.06;44.28
65013;BME280;51715;39.432;-77.518;2023-06-10T11:05:02;99130.23;;;17.19;44.18
65013;BME280;51715;39.432;-77.518;2023-06-10T11:07:31;99126.80;;;17.28;44.15
65013;BME280;51715;39.432;-77.518;2023-06-10T11:10:00;99125.97;;;17.40;43.92
65013;BME280;51715;39.432;-77.518;2023-06-10T11:12:42;99129.72;;;17.28;44.16
65013;BME280;51715;39.432;-77.518;2023-06-10T11:15:19;99127.27;;;17.24;44.29
65013;BME280;51715;39.432;-77.518;2023-06-10T11:18:09;99130.04;;;17.78;44.76
65013;BME280;51715;39.432;-77.518;2023-06-10T11:20:55;99130.35;;;17.49;44.64
65013;BME280;51715;39.432;-77.518;2023-06-10T11:23:34;99130.55;;;17.90;44.75
65013;BME280;51715;39.432;-77.518;2023-06-10T11:26:22;99133.85;;;18.08;44.71
65013;BME280;51715;39.432;-77.518;2023-06-10T11:29:08;99132.35;;;18.25;45.09
65013;BME280;51715;39.432;-77.518;2023-06-10T11:31:42;99132.12;;;18.26;45.16
65013;BME280;51715;39.432;-77.518;2023-06-10T11:34:12;99125.15;;;18.48;45.06
65013;BME280;51715;39.432;-77.518;2023-06-10T11:36:41;99128.42;;;18.67;44.83
65013;BME280;51715;39.432;-77.518;2023-06-10T11:39:10;99128.94;;;18.62;44.33
65013;BME280;51715;39.432;-77.518;2023-06-10T11:41:39;99131.17;;;18.81;43.97
65013;BME280;51715;39.432;-77.518;2023-06-10T11:44:09;99128.75;;;19.02;43.83
65013;BME280;51715;39.432;-77.518;2023-06-10T11:46:39;99126.15;;;18.97;43.89
65013;BME280;51715;39.432;-77.518;2023-06-10T11:49:07;99122.44;;;19.26;42.30
65013;BME280;51715;39.432;-77.518;2023-06-10T11:51:37;99119.27;;;19.51;42.21
65013;BME280;51715;39.432;-77.518;2023-06-10T11:54:08;99115.42;;;19.37;41.06
65013;BME280;51715;39.432;-77.518;2023-06-10T11:56:36;99116.19;;;19.64;40.24
65013;BME280;51715;39.432;-77.518;2023-06-10T11:59:05;99116.73;;;19.60;40.67
65013;BME280;51715;39.432;-77.518;2023-06-10T12:01:35;99119.70;;;19.78;40.79
65013;BME280;51715;39.432;-77.518;2023-06-10T12:04:05;99119.90;;;19.88;40.38
65013;BME280;51715;39.432;-77.518;2023-06-10T12:06:43;99122.64;;;20.04;40.38
65013;BME280;51715;39.432;-77.518;2023-06-10T12:09:15;99128.53;;;20.28;38.78
65013;BME280;51715;39.432;-77.518;2023-06-10T12:11:44;99130.79;;;20.43;38.36
65013;BME280;51715;39.432;-77.518;2023-06-10T12:14:12;99132.49;;;20.57;37.45
65013;BME280;51715;39.432;-77.518;2023-06-10T12:16:47;99132.49;;;20.26;38.32
65013;BME280;51715;39.432;-77.518;2023-06-10T12:19:16;99134.55;;;20.76;38.55
65013;BME280;51715;39.432;-77.518;2023-06-10T12:21:45;99135.08;;;21.01;39.01
65013;BME280;51715;39.432;-77.518;2023-06-10T12:24:14;99138.30;;;21.28;38.51
65013;BME280;51715;39.432;-77.518;2023-06-10T12:26:43;99141.94;;;21.19;38.61
65013;BME280;51715;39.432;-77.518;2023-06-10T12:29:20;99141.44;;;21.42;36.37
65013;BME280;51715;39.432;-77.518;2023-06-10T12:31:59;99143.38;;;21.57;35.20
65013;BME280;51715;39.432;-77.518;2023-06-10T12:34:37;99141.97;;;21.66;34.73
65013;BME280;51715;39.432;-77.518;2023-06-10T12:37:10;99139.15;;;21.55;33.72
65013;BME280;51715;39.432;-77.518;2023-06-10T12:39:40;99136.68;;;21.69;35.29
65013;BME280;51715;39.432;-77.518;2023-06-10T12:42:09;99139.30;;;21.64;33.52
65013;BME280;51715;39.432;-77.518;2023-06-10T12:44:40;99141.56;;;22.06;32.53
65013;BME280;51715;39.432;-77.518;2023-06-10T12:47:10;99143.63;;;22.00;32.53
65013;BME280;51715;39.432;-77.518;2023-06-10T12:49:39;99143.87;;;22.17;33.29
65013;BME280;51715;39.432;-77.518;2023-06-10T12:52:08;99146.91;;;22.41;33.60
65013;BME280;51715;39.432;-77.518;2023-06-10T12:54:36;99147.07;;;22.64;34.90
65013;BME280;51715;39.432;-77.518;2023-06-10T12:57:05;99149.72;;;22.88;33.65
65013;BME280;51715;39.432;-77.518;2023-06-10T12:59:33;99149.39;;;22.55;32.58
65013;BME280;51715;39.432;-77.518;2023-06-10T13:02:01;99150.42;;;22.77;30.89
65013;BME280;51715;39.432;-77.518;2023-06-10T13:04:29;99141.25;;;23.22;30.30
65013;BME280;51715;39.432;-77.518;2023-06-10T13:06:58;99139.26;;;23.14;30.07
65013;BME280;51715;39.432;-77.518;2023-06-10T13:09:26;99139.37;;;23.35;30.50